Tower, Minnesota
Current Conditions -  °F | °C
As of 9:54 PM on Thursday 18 Dec 2014 (Local Time) from KCQM Reporting Station
Overcast Overcast  
Wind Chill: -6°   Ceiling: 1600
Heat Index: -6°   Visibility: 10mi
Dew Point: -7°   Wind: 0mph
Humidity: 93%   Direction: NA
Pressure: 30.21"   Gusts: NA
Location:  47.81°N, 92.27°W
Report Text: KCQM 190354Z AUTO 00000KT 10SM OVC016 M06/M07 A3021 RMK AO2
Loading
Personal Weather Stations






























Interactive Weather Map New forecast layout! Learn more

10-Day Weather Forecast

Advertisements
Track Severe Weather on mobile